CheckWX is a tool to help pilots better visualize weather data.  It is not intended as a substitute for an official pre-flight weather briefing.

21:07:43 UTC

FQCH METAR
Chimoio Airport
Chimoio, Mozambique
Current

1 hour ago

FQCH 112000Z 05005KT 9999 FEW020 21/13 Q1019
Observed
Jul-11 @ 20:00 UTC
Wind
  • 050° at 5 KTS
Visibility
10,000+ meters
Flight Rules
VFR
Cloud Levels
  • Few at 2,000' AGL
Temperature
21°C / 70°F
Dewpoint
13°C / 55°F
Humidity
60%
Altimeter
30.09" Hg
Pressure
1018.92 hPa
Previous

2 hours ago

FQCH 111900Z 07007KT 9999 FEW020 23/15 Q1019
Observed
Jul-11 @ 19:00 UTC
Wind
  • 070° at 7 KTS
Visibility
10,000+ meters
Flight Rules
VFR
Cloud Levels
  • Few at 2,000' AGL
Temperature
23°C / 73°F
Dewpoint
15°C / 59°F
Humidity
61%
Altimeter
30.09" Hg
Pressure
1018.92 hPa
Previous

3 hours ago

FQCH 111800Z 07008KT 9999 FEW020 24/13 Q1019
Observed
Jul-11 @ 18:00 UTC
Wind
  • 070° at 8 KTS
Visibility
10,000+ meters
Flight Rules
VFR
Cloud Levels
  • Few at 2,000' AGL
Temperature
24°C / 75°F
Dewpoint
13°C / 55°F
Humidity
50%
Altimeter
30.09" Hg
Pressure
1018.92 hPa